createdAt,value
2022-08-07T00:00:03.014Z,100727.51
2022-08-07T00:01:42.948Z,100726.72
2022-08-07T00:02:39.836Z,100727.63
2022-08-07T00:03:12.951Z,100725.89
2022-08-07T00:04:16.037Z,100726.84
2022-08-07T00:05:18.040Z,100721.66
2022-08-07T00:06:29.517Z,100724.38
2022-08-07T00:07:27.343Z,100722.63
2022-08-07T00:08:29.471Z,100726.26
2022-08-07T00:09:35.541Z,100718.30
2022-08-07T00:10:35.947Z,100724.55
2022-08-07T00:11:40.012Z,100723.66
2022-08-07T00:12:43.776Z,100720.22
2022-08-07T00:13:47.327Z,100722.94
2022-08-07T00:14:49.285Z,100721.20
2022-08-07T00:15:51.634Z,100723.91
2022-08-07T00:16:53.802Z,100716.87
2022-08-07T00:17:55.756Z,100721.31
2022-08-07T00:18:58.221Z,100720.52
2022-08-07T00:20:03.291Z,100721.37
2022-08-07T00:21:08.157Z,100723.23
2022-08-07T00:22:08.378Z,100725.00
2022-08-07T00:23:12.071Z,100724.20
2022-08-07T00:24:14.332Z,100730.42
2022-08-07T00:25:17.247Z,100721.64
2022-08-07T00:26:48.591Z,100728.73
2022-08-07T00:27:23.155Z,100724.35
2022-08-07T00:28:33.599Z,100731.39
2022-08-07T00:29:32.108Z,100727.86
2022-08-07T00:30:34.240Z,100730.50
2022-08-07T00:31:38.071Z,100731.45
2022-08-07T00:32:40.203Z,100741.16
2022-08-07T00:33:42.858Z,100738.57
2022-08-07T00:34:46.669Z,100735.06
2022-08-07T00:35:50.735Z,100728.97
2022-08-07T00:36:52.711Z,100732.53
2022-08-07T00:37:55.277Z,100737.89
2022-08-07T00:38:58.931Z,100734.36
2022-08-07T00:40:01.144Z,100734.42
2022-08-07T00:41:03.592Z,100736.22
2022-08-07T00:42:05.647Z,100734.53
2022-08-07T00:43:09.639Z,100736.39
2022-08-07T00:44:11.296Z,100732.89
2022-08-07T00:45:16.492Z,100739.09
2022-08-07T00:46:19.089Z,100739.16
2022-08-07T00:48:08.120Z,100735.66
2022-08-07T00:48:31.740Z,100734.77
2022-08-07T00:50:20.234Z,100726.88
2022-08-07T00:50:46.511Z,100737.53
2022-08-07T00:51:57.503Z,100731.44
2022-08-07T00:52:41.865Z,100735.87
2022-08-07T00:53:50.435Z,100740.30
2022-08-07T00:54:53.580Z,100741.23
2022-08-07T00:56:02.425Z,100739.50
2022-08-07T00:56:57.147Z,100736.91
2022-08-07T00:57:59.930Z,100732.52
2022-08-07T00:59:01.876Z,100734.31
2022-08-07T01:00:04.446Z,100738.73
2022-08-07T01:01:06.421Z,100735.28
2022-08-07T01:02:14.245Z,100733.55
2022-08-07T01:03:12.747Z,100731.84
2022-08-07T01:04:24.565Z,100733.66
2022-08-07T01:05:18.816Z,100727.56
2022-08-07T01:06:22.502Z,100730.32
2022-08-07T01:07:24.866Z,100732.17
2022-08-07T01:08:28.560Z,100726.99
2022-08-07T01:10:05.060Z,100731.41
2022-08-07T01:10:34.309Z,100731.45
2022-08-07T01:12:23.577Z,100730.60
2022-08-07T01:12:53.168Z,100728.02
2022-08-07T01:13:55.575Z,100737.70
2022-08-07T01:14:48.266Z,100735.95
2022-08-07T01:16:05.562Z,100729.80
2022-08-07T01:16:55.755Z,100731.56
2022-08-07T01:17:57.808Z,100735.13
2022-08-07T01:18:59.766Z,100734.27
2022-08-07T01:20:02.227Z,100732.59
2022-08-07T01:21:05.611Z,100737.08
2022-08-07T01:22:09.405Z,100737.99
2022-08-07T01:23:13.316Z,100731.90
2022-08-07T01:24:21.163Z,100731.09
2022-08-07T01:25:54.058Z,100729.30
2022-08-07T01:26:23.056Z,100728.51
2022-08-07T01:27:32.482Z,100732.86
2022-08-07T01:28:31.569Z,100727.56
2022-08-07T01:29:34.851Z,100728.45
2022-08-07T01:30:36.911Z,100724.92
2022-08-07T01:31:42.799Z,100725.80
2022-08-07T01:32:44.302Z,100725.80
2022-08-07T01:33:56.021Z,100726.77
2022-08-07T01:34:50.861Z,100725.03
2022-08-07T01:36:06.047Z,100728.62
2022-08-07T01:36:57.867Z,100733.05
2022-08-07T01:38:00.315Z,100735.75
2022-08-07T01:39:09.470Z,100731.39
2022-08-07T01:40:06.110Z,100737.65
2022-08-07T01:41:10.470Z,100739.41
2022-08-07T01:42:37.604Z,100735.97
2022-08-07T01:43:16.731Z,100736.82
2022-08-07T01:44:18.684Z,100742.11
2022-08-07T01:45:22.768Z,100735.11
2022-08-07T01:46:25.353Z,100731.52
2022-08-07T01:48:19.248Z,100735.06
2022-08-07T01:48:31.268Z,100734.17
2022-08-07T01:49:33.261Z,100734.17
2022-08-07T01:50:35.415Z,100738.61
2022-08-07T01:52:01.795Z,100737.86
2022-08-07T01:52:49.359Z,100736.13
2022-08-07T01:54:09.065Z,100730.83
2022-08-07T01:54:48.552Z,100728.24
2022-08-07T01:55:50.822Z,100730.89
2022-08-07T01:56:52.766Z,100733.59
2022-08-07T01:58:05.759Z,100733.59
2022-08-07T01:58:58.411Z,100731.84
2022-08-07T02:00:01.488Z,100739.78
2022-08-07T02:01:25.318Z,100737.14
2022-08-07T02:02:07.707Z,100745.08
2022-08-07T02:03:21.738Z,100741.58
2022-08-07T02:04:15.060Z,100736.28
2022-08-07T02:05:47.838Z,100733.69
2022-08-07T02:06:31.234Z,100741.69
2022-08-07T02:07:45.188Z,100731.16
2022-08-07T02:08:30.727Z,100742.59
2022-08-07T02:09:43.629Z,100733.85
2022-08-07T02:10:36.576Z,100736.55
2022-08-07T02:12:02.994Z,100734.81
2022-08-07T02:12:46.433Z,100737.45
2022-08-07T02:13:58.312Z,100740.10
2022-08-07T02:14:51.448Z,100735.75
2022-08-07T02:15:53.406Z,100743.69
2022-08-07T02:16:55.456Z,100745.45
2022-08-07T02:17:59.929Z,100738.39
2022-08-07T02:19:02.015Z,100741.06
2022-08-07T02:20:09.547Z,100739.41
2022-08-07T02:21:09.605Z,100746.45
2022-08-07T02:22:13.308Z,100742.05
2022-08-07T02:23:17.095Z,100742.05
2022-08-07T02:24:20.792Z,100742.11
2022-08-07T02:26:11.426Z,100744.75
2022-08-07T02:26:32.960Z,100742.16
2022-08-07T02:27:34.201Z,100737.77
2022-08-07T02:28:33.937Z,100735.17
2022-08-07T02:29:43.510Z,100737.83
2022-08-07T02:30:39.581Z,100738.67
2022-08-07T02:31:41.429Z,100736.03
2022-08-07T02:33:09.142Z,100739.56
2022-08-07T02:34:01.630Z,100738.67
2022-08-07T02:34:51.251Z,100739.56
2022-08-07T02:36:29.683Z,100740.41
2022-08-07T02:36:57.024Z,100741.33
2022-08-07T02:38:00.821Z,100742.26
2022-08-07T02:39:16.793Z,100744.91
2022-08-07T02:40:30.646Z,100745.81
2022-08-07T02:41:12.281Z,100741.42
2022-08-07T02:42:16.221Z,100748.56
2022-08-07T02:43:18.367Z,100742.47
2022-08-07T02:44:20.321Z,100743.38
2022-08-07T02:46:00.305Z,100747.86
2022-08-07T02:46:27.910Z,100742.57
2022-08-07T02:47:45.140Z,100750.50
2022-08-07T02:48:34.656Z,100753.15
2022-08-07T02:49:59.083Z,100745.22
2022-08-07T02:50:40.431Z,100753.15
2022-08-07T02:51:51.913Z,100748.71
2022-08-07T02:52:48.649Z,100754.00
2022-08-07T02:53:49.672Z,100754.00
2022-08-07T02:54:52.067Z,100753.15
2022-08-07T02:56:04.077Z,100753.15
2022-08-07T02:56:57.678Z,100749.67
2022-08-07T02:57:59.797Z,100763.83
2022-08-07T02:59:01.791Z,100749.67
2022-08-07T03:00:10.435Z,100759.39
2022-08-07T03:01:15.988Z,100759.39
2022-08-07T03:02:11.334Z,100753.25
2022-08-07T03:03:13.710Z,100763.83
2022-08-07T03:04:16.872Z,100763.83
2022-08-07T03:05:20.833Z,100766.48
2022-08-07T03:06:32.100Z,100764.69
2022-08-07T03:07:58.951Z,100762.04
2022-08-07T03:08:30.109Z,100760.25
2022-08-07T03:09:44.659Z,100753.27
2022-08-07T03:10:35.755Z,100758.56
2022-08-07T03:11:51.946Z,100759.55
2022-08-07T03:12:43.149Z,100763.90
2022-08-07T03:13:49.373Z,100760.40
2022-08-07T03:14:52.329Z,100777.13
2022-08-07T03:15:56.472Z,100764.78
2022-08-07T03:16:56.486Z,100768.23
2022-08-07T03:17:58.332Z,100773.47
2022-08-07T03:19:00.755Z,100762.89
2022-08-07T03:20:02.647Z,100774.36
2022-08-07T03:21:04.907Z,100760.25
2022-08-07T03:22:18.703Z,100754.05
2022-08-07T03:23:14.402Z,100762.80
2022-08-07T03:24:21.192Z,100770.67
2022-08-07T03:25:21.185Z,100764.48
2022-08-07T03:26:23.992Z,100760.98
2022-08-07T03:27:30.268Z,100763.58
2022-08-07T03:28:37.812Z,100763.53
2022-08-07T03:29:33.850Z,100767.08
2022-08-07T03:30:37.225Z,100761.78
2022-08-07T03:31:43.502Z,100764.44
2022-08-07T03:32:49.157Z,100761.78
2022-08-07T03:33:46.979Z,100762.64
2022-08-07T03:35:17.043Z,100763.53
2022-08-07T03:35:54.057Z,100767.03
2022-08-07T03:36:58.083Z,100770.52
2022-08-07T03:38:00.012Z,100767.88
2022-08-07T03:39:05.256Z,100767.03
2022-08-07T03:40:16.001Z,100764.38
2022-08-07T03:41:10.453Z,100770.52
2022-08-07T03:42:12.437Z,100767.88
2022-08-07T03:43:14.751Z,100769.67
2022-08-07T03:44:16.743Z,100767.03
2022-08-07T03:45:30.005Z,100763.53
2022-08-07T03:46:24.233Z,100767.08
2022-08-07T03:47:29.572Z,100765.28
2022-08-07T03:48:31.722Z,100765.23
2022-08-07T03:49:33.575Z,100768.72
2022-08-07T03:50:35.525Z,100762.53
2022-08-07T03:51:47.381Z,100764.28
2022-08-07T03:52:41.279Z,100771.31
2022-08-07T03:54:05.704Z,100767.73
2022-08-07T03:54:54.436Z,100772.11
2022-08-07T03:55:58.467Z,100770.32
2022-08-07T03:57:03.746Z,100770.27
2022-08-07T03:58:34.023Z,100768.52
2022-08-07T03:59:13.149Z,100768.46
2022-08-07T04:00:06.822Z,100767.52
2022-08-07T04:01:11.338Z,100774.50
2022-08-07T04:02:13.391Z,100766.56
2022-08-07T04:03:16.262Z,100769.21
2022-08-07T04:04:18.349Z,100770.05
2022-08-07T04:05:20.574Z,100771.80
2022-08-07T04:06:38.420Z,100766.52
2022-08-07T04:07:41.631Z,100770.05
2022-08-07T04:08:31.757Z,100773.55
2022-08-07T04:09:44.672Z,100769.11
2022-08-07T04:10:38.981Z,100762.91
2022-08-07T04:12:28.202Z,100769.94
2022-08-07T04:12:44.588Z,100775.13
2022-08-07T04:14:33.330Z,100768.89
2022-08-07T04:14:50.234Z,100775.02
2022-08-07T04:15:52.089Z,100771.39
2022-08-07T04:16:58.821Z,100779.27
2022-08-07T04:18:57.147Z,100777.45
2022-08-07T04:19:04.102Z,100778.27
2022-08-07T04:20:05.838Z,100776.39
2022-08-07T04:21:07.894Z,100771.90
2022-08-07T04:22:13.338Z,100774.50
2022-08-07T04:23:19.197Z,100777.06
2022-08-07T04:24:30.652Z,100773.52
2022-08-07T04:25:20.919Z,100772.52
2022-08-07T04:26:28.504Z,100779.45
2022-08-07T04:27:35.648Z,100781.98
2022-08-07T04:28:34.061Z,100786.32
2022-08-07T04:29:40.408Z,100787.17
2022-08-07T04:30:55.247Z,100790.59
2022-08-07T04:32:03.180Z,100786.16
2022-08-07T04:32:47.960Z,100790.48
2022-08-07T04:33:54.956Z,100788.64
2022-08-07T04:34:53.864Z,100797.38
2022-08-07T04:35:55.817Z,100789.38
2022-08-07T04:36:59.511Z,100788.48
2022-08-07T04:38:05.440Z,100786.63
2022-08-07T04:39:05.181Z,100790.11
2022-08-07T04:40:08.134Z,100793.55
2022-08-07T04:41:10.027Z,100796.14
2022-08-07T04:42:13.778Z,100796.97
2022-08-07T04:43:15.729Z,100798.63
2022-08-07T04:44:18.709Z,100790.63
2022-08-07T04:46:00.372Z,100797.61
2022-08-07T04:46:29.345Z,100793.05
2022-08-07T04:48:02.063Z,100796.53
2022-08-07T04:48:33.275Z,100795.47
2022-08-07T04:49:37.724Z,100795.47
2022-08-07T04:50:39.229Z,100796.36
2022-08-07T04:51:41.399Z,100798.89
2022-08-07T04:52:51.063Z,100798.78
2022-08-07T04:54:05.461Z,100800.46
2022-08-07T04:54:51.959Z,100795.11
2022-08-07T04:58:09.386Z,100791.45
2022-08-07T04:58:16.265Z,100797.58
2022-08-07T04:58:16.265Z,100796.62
2022-08-07T04:59:16.984Z,100793.00
2022-08-07T05:00:14.564Z,100791.08
2022-08-07T05:01:13.647Z,100790.91
2022-08-07T05:02:16.939Z,100793.47
2022-08-07T05:04:00.297Z,100788.11
2022-08-07T05:04:23.546Z,100791.50
2022-08-07T05:05:53.417Z,100792.29
2022-08-07T05:06:43.728Z,100798.36
2022-08-07T05:07:36.876Z,100800.89
2022-08-07T05:08:59.186Z,100802.54
2022-08-07T05:09:46.112Z,100793.61
2022-08-07T05:10:46.554Z,100796.08
2022-08-07T05:11:58.229Z,100804.92
2022-08-07T05:12:53.819Z,100799.56
2022-08-07T05:14:56.173Z,100799.50
2022-08-07T05:15:03.498Z,100794.14
2022-08-07T05:16:04.788Z,100795.78
2022-08-07T05:17:12.040Z,100794.80
2022-08-07T05:18:10.735Z,100805.30
2022-08-07T05:19:12.711Z,100799.08
2022-08-07T05:20:17.122Z,100795.41
2022-08-07T05:21:59.851Z,100799.80
2022-08-07T05:22:27.709Z,100797.03
2022-08-07T05:23:29.084Z,100797.85
2022-08-07T05:24:30.706Z,100803.09
2022-08-07T05:25:37.376Z,100794.19
2022-08-07T05:26:37.847Z,100794.98
2022-08-07T05:28:02.894Z,100797.58
2022-08-07T05:28:48.777Z,100793.91
2022-08-07T05:29:51.224Z,100797.33
2022-08-07T05:30:52.241Z,100798.11
2022-08-07T05:31:54.367Z,100798.91
2022-08-07T05:32:57.138Z,100805.03
2022-08-07T05:34:04.777Z,100806.77
2022-08-07T05:35:03.399Z,100799.60
2022-08-07T05:36:05.556Z,100791.70
2022-08-07T05:37:07.407Z,100791.70
2022-08-07T05:38:09.810Z,100794.95
2022-08-07T05:40:13.462Z,100799.28
2022-08-07T05:40:19.263Z,100806.33
2022-08-07T05:41:21.830Z,100801.75
2022-08-07T05:42:33.894Z,100797.30
2022-08-07T05:43:49.761Z,100802.53
2022-08-07T05:44:32.184Z,100800.70
2022-08-07T05:45:47.346Z,100804.14
2022-08-07T05:46:38.291Z,100809.39
2022-08-07T05:48:01.506Z,100806.67
2022-08-07T05:48:58.108Z,100804.84
2022-08-07T05:49:47.758Z,100804.77
2022-08-07T05:50:50.754Z,100807.30
2022-08-07T05:51:52.765Z,100802.78
2022-08-07T05:52:56.456Z,100808.94
2022-08-07T05:54:13.570Z,100804.45
2022-08-07T05:55:07.073Z,100806.97
2022-08-07T05:56:06.816Z,100810.41
2022-08-07T05:57:08.885Z,100812.09
2022-08-07T05:58:11.055Z,100812.02
2022-08-07T05:59:13.089Z,100817.27
2022-08-07T06:00:17.820Z,100809.23
2022-08-07T06:01:19.810Z,100813.56
2022-08-07T06:02:22.694Z,100818.80
2022-08-07T06:03:25.614Z,100817.85
2022-08-07T06:04:30.171Z,100824.87
2022-08-07T06:05:33.424Z,100821.30
2022-08-07T06:06:36.241Z,100819.42
2022-08-07T06:08:14.072Z,100812.24
2022-08-07T06:08:42.721Z,100814.83
2022-08-07T06:10:05.223Z,100825.39
2022-08-07T06:10:51.339Z,100825.25
2022-08-07T06:11:53.933Z,100825.16
2022-08-07T06:12:55.888Z,100820.63
2022-08-07T06:14:13.094Z,100817.91
2022-08-07T06:15:05.138Z,100815.18
2022-08-07T06:16:05.428Z,100824.89
2022-08-07T06:17:09.121Z,100820.42
2022-08-07T06:18:11.075Z,100823.80
2022-08-07T06:19:18.017Z,100816.71
2022-08-07T06:20:25.719Z,100824.62
2022-08-07T06:22:14.392Z,100821.89
2022-08-07T06:22:27.383Z,100820.87
2022-08-07T06:24:36.799Z,100826.12
2022-08-07T06:24:45.540Z,100833.98
2022-08-07T06:25:37.954Z,100840.94
2022-08-07T06:26:40.110Z,100836.44
2022-08-07T06:27:59.868Z,100841.62
2022-08-07T06:28:47.090Z,100831.84
2022-08-07T06:29:51.292Z,100821.98
2022-08-07T06:30:53.365Z,100821.92
2022-08-07T06:31:55.409Z,100818.27
2022-08-07T06:32:58.002Z,100818.13
2022-08-07T06:33:59.930Z,100822.45
2022-08-07T06:35:02.192Z,100820.52
2022-08-07T06:36:12.991Z,100821.33
2022-08-07T06:37:11.360Z,100817.67
2022-08-07T06:38:20.683Z,100820.19
2022-08-07T06:40:12.855Z,100820.05
2022-08-07T06:40:24.512Z,100822.64
2022-08-07T06:41:59.153Z,100826.11
2022-08-07T06:42:34.764Z,100833.95
2022-08-07T06:43:39.476Z,100827.67
2022-08-07T06:44:39.774Z,100823.17
2022-08-07T06:45:44.674Z,100838.98
2022-08-07T06:46:53.269Z,100836.25
2022-08-07T06:47:57.730Z,100837.91
2022-08-07T06:48:52.952Z,100836.03
2022-08-07T06:49:58.649Z,100830.64
2022-08-07T06:50:58.598Z,100831.42
2022-08-07T06:52:07.303Z,100823.37
2022-08-07T06:53:06.191Z,100818.86
2022-08-07T06:55:31.492Z,100821.30
2022-08-07T06:55:31.625Z,100825.81
2022-08-07T06:56:19.216Z,100826.48
2022-08-07T06:57:39.407Z,100831.58
2022-08-07T06:58:27.538Z,100831.44
2022-08-07T07:00:13.187Z,100832.22
2022-08-07T07:00:34.020Z,100835.61
2022-08-07T07:01:42.149Z,100830.14
2022-08-07T07:02:54.344Z,100823.86
2022-08-07T07:03:49.864Z,100829.99
2022-08-07T07:04:55.022Z,100826.30
2022-08-07T07:06:05.587Z,100826.30
2022-08-07T07:07:00.699Z,100824.41
2022-08-07T07:08:01.087Z,100830.44
2022-08-07T07:09:03.124Z,100831.24
2022-08-07T07:10:06.968Z,100838.19
2022-08-07T07:11:13.030Z,100833.67
2022-08-07T07:12:18.062Z,100830.87
2022-08-07T07:13:43.538Z,100827.17
2022-08-07T07:14:21.970Z,100825.31
2022-08-07T07:15:32.359Z,100829.56
2022-08-07T07:16:30.469Z,100830.34
2022-08-07T07:17:38.890Z,100830.19
2022-08-07T07:18:48.010Z,100828.30
2022-08-07T07:19:57.970Z,100830.80
2022-08-07T07:20:44.291Z,100825.41
2022-08-07T07:22:04.874Z,100822.59
2022-08-07T07:24:05.990Z,100821.58
2022-08-07T07:24:08.641Z,100819.69
2022-08-07T07:25:13.988Z,100823.08
2022-08-07T07:26:34.706Z,100817.68
2022-08-07T07:27:07.262Z,100814.01
2022-08-07T07:28:42.249Z,100819.18
2022-08-07T07:29:56.933Z,100818.14
2022-08-07T07:30:28.351Z,100811.88
2022-08-07T07:31:21.437Z,100819.72
2022-08-07T07:32:23.680Z,100816.92
2022-08-07T07:33:25.531Z,100818.50
2022-08-07T07:34:30.831Z,100820.16
2022-08-07T07:35:33.428Z,100807.04
2022-08-07T07:36:35.180Z,100817.17
2022-08-07T07:37:45.470Z,100817.02
2022-08-07T07:38:46.114Z,100816.86
2022-08-07T07:39:54.230Z,100816.70
2022-08-07T07:40:50.972Z,100822.72
2022-08-07T07:42:13.595Z,100811.04
2022-08-07T07:42:57.374Z,100819.72
2022-08-07T07:44:17.806Z,100815.20
2022-08-07T07:45:03.076Z,100820.36
2022-08-07T07:46:37.885Z,100813.05
2022-08-07T07:47:14.169Z,100821.82
2022-08-07T07:48:12.526Z,100817.20
2022-08-07T07:50:34.082Z,100810.83
2022-08-07T07:50:34.755Z,100816.03
2022-08-07T07:51:24.720Z,100813.20
2022-08-07T07:52:28.753Z,100806.82
2022-08-07T07:53:31.189Z,100808.50
2022-08-07T07:54:36.011Z,100816.33
2022-08-07T07:55:45.592Z,100818.83
2022-08-07T07:56:42.270Z,100815.23
2022-08-07T07:57:52.104Z,100813.34
2022-08-07T07:58:48.743Z,100818.50
2022-08-07T07:59:53.947Z,100818.33
2022-08-07T08:00:56.381Z,100824.38
2022-08-07T08:02:04.098Z,100823.33
2022-08-07T08:03:05.547Z,100823.16
2022-08-07T08:04:11.489Z,100816.81
2022-08-07T08:05:15.134Z,100814.91
2022-08-07T08:06:17.556Z,100816.55
2022-08-07T08:07:20.118Z,100816.47
2022-08-07T08:08:34.941Z,100826.12
2022-08-07T08:09:29.272Z,100817.18
2022-08-07T08:10:35.548Z,100820.53
2022-08-07T08:11:59.677Z,100815.19
2022-08-07T08:12:58.838Z,100827.42
2022-08-07T08:13:54.521Z,100826.38
2022-08-07T08:14:45.380Z,100827.17
2022-08-07T08:15:58.672Z,100827.94
2022-08-07T08:16:52.140Z,100822.52
2022-08-07T08:17:57.912Z,100827.67
2022-08-07T08:18:57.893Z,100828.52
2022-08-07T08:20:17.173Z,100827.50
2022-08-07T08:21:03.993Z,100818.59
2022-08-07T08:22:07.839Z,100816.69
2022-08-07T08:23:11.025Z,100818.33
2022-08-07T08:24:36.075Z,100812.05
2022-08-07T08:25:24.543Z,100812.81
2022-08-07T08:26:22.203Z,100812.73
2022-08-07T08:27:26.642Z,100812.64
2022-08-07T08:28:37.867Z,100815.22
2022-08-07T08:29:34.611Z,100815.05
2022-08-07T08:30:42.604Z,100816.69
2022-08-07T08:32:16.695Z,100814.78
2022-08-07T08:32:49.084Z,100815.58
2022-08-07T08:33:55.293Z,100817.09
2022-08-07T08:34:53.392Z,100812.55
2022-08-07T08:35:55.345Z,100812.38
2022-08-07T08:36:57.974Z,100819.33
2022-08-07T08:38:03.513Z,100818.30
2022-08-07T08:39:04.502Z,100817.36
2022-08-07T08:40:12.339Z,100810.02
2022-08-07T08:41:12.896Z,100812.59
2022-08-07T08:42:15.559Z,100825.77
2022-08-07T08:43:19.367Z,100817.76
2022-08-07T08:44:21.307Z,100816.81
2022-08-07T08:45:26.894Z,100811.39
2022-08-07T08:46:28.997Z,100816.64
2022-08-07T08:47:47.345Z,100814.81
2022-08-07T08:48:38.287Z,100817.30
2022-08-07T08:49:57.245Z,100807.50
2022-08-07T08:50:43.891Z,100811.88
2022-08-07T08:52:13.119Z,100802.83
2022-08-07T08:52:53.633Z,100806.30
2022-08-07T08:53:53.636Z,100805.26
2022-08-07T08:54:56.910Z,100809.57
2022-08-07T08:55:59.322Z,100808.54
2022-08-07T08:57:02.311Z,100804.80
2022-08-07T08:58:04.809Z,100807.38
2022-08-07T08:59:13.768Z,100806.34
2022-08-07T09:00:12.746Z,100802.64
2022-08-07T09:01:18.437Z,100810.48
2022-08-07T09:02:36.515Z,100816.48
2022-08-07T09:03:22.887Z,100807.89
2022-08-07T09:04:28.930Z,100810.20
2022-08-07T09:05:37.408Z,100808.28
2022-08-07T09:06:34.540Z,100804.67
2022-08-07T09:07:46.482Z,100808.09
2022-08-07T09:08:41.767Z,100806.21
2022-08-07T09:09:43.716Z,100810.48
2022-08-07T09:10:47.505Z,100810.39
2022-08-07T09:11:53.618Z,100806.78
2022-08-07T09:12:54.328Z,100812.03
2022-08-07T09:13:58.485Z,100808.33
2022-08-07T09:15:00.962Z,100808.23
2022-08-07T09:16:23.616Z,100804.48
2022-08-07T09:17:08.839Z,100805.27
2022-08-07T09:18:16.815Z,100807.85
2022-08-07T09:19:50.768Z,100801.38
2022-08-07T09:20:34.925Z,100801.38
2022-08-07T09:21:34.509Z,100796.78
2022-08-07T09:24:30.792Z,100802.81
2022-08-07T09:24:33.684Z,100802.63
2022-08-07T09:24:54.881Z,100808.77
2022-08-07T09:25:41.166Z,100807.69
2022-08-07T09:26:47.921Z,100801.40
2022-08-07T09:28:00.413Z,100797.68
2022-08-07T09:30:03.323Z,100802.84
2022-08-07T09:30:06.562Z,100796.70
2022-08-07T09:30:59.333Z,100800.92
2022-08-07T09:32:01.486Z,100799.13
2022-08-07T09:33:05.324Z,100796.45
2022-08-07T09:34:07.662Z,100802.65
2022-08-07T09:36:04.464Z,100804.28
2022-08-07T09:36:14.620Z,100803.30
2022-08-07T09:37:17.703Z,100798.73
2022-08-07T09:38:19.653Z,100803.02
2022-08-07T09:39:52.671Z,100801.22
2022-08-07T09:40:27.264Z,100808.27
2022-08-07T09:41:36.232Z,100808.95
2022-08-07T09:42:35.348Z,100805.20
2022-08-07T09:44:05.237Z,100806.83
2022-08-07T09:47:26.252Z,100794.14
2022-08-07T09:47:50.388Z,100804.75
2022-08-07T09:48:01.789Z,100800.05
2022-08-07T09:50:02.235Z,100802.63
2022-08-07T09:50:19.046Z,100795.55
2022-08-07T09:51:14.804Z,100795.55
2022-08-07T09:52:33.790Z,100800.59
2022-08-07T09:53:13.326Z,100804.06
2022-08-07T09:54:16.382Z,100805.75
2022-08-07T09:56:02.345Z,100802.06
2022-08-07T09:56:34.119Z,100794.69
2022-08-07T09:57:27.233Z,100794.69
2022-08-07T09:58:32.426Z,100813.26
2022-08-07T09:59:44.654Z,100809.40
2022-08-07T10:00:37.206Z,100804.83
2022-08-07T10:01:52.240Z,100808.25
2022-08-07T10:02:54.983Z,100803.65
2022-08-07T10:04:04.023Z,100809.69
2022-08-07T10:04:53.072Z,100802.41
2022-08-07T10:06:00.656Z,100804.13
2022-08-07T10:06:59.153Z,100787.97
2022-08-07T10:08:01.503Z,100794.17
2022-08-07T10:09:04.294Z,100796.75
2022-08-07T10:10:06.898Z,100804.58
2022-08-07T10:11:59.527Z,100793.77
2022-08-07T10:12:21.562Z,100795.49
2022-08-07T10:13:55.040Z,100800.75
2022-08-07T10:14:22.681Z,100796.24
2022-08-07T10:15:25.424Z,100797.86
2022-08-07T10:16:27.478Z,100793.36
2022-08-07T10:18:01.874Z,100791.56
2022-08-07T10:18:35.379Z,100805.70
2022-08-07T10:19:38.703Z,100801.30
2022-08-07T10:20:41.072Z,100793.26
2022-08-07T10:22:14.033Z,100800.23
2022-08-07T10:22:50.996Z,100788.58
2022-08-07T10:24:04.747Z,100790.27
2022-08-07T10:24:56.014Z,100792.75
2022-08-07T10:26:00.476Z,100792.64
2022-08-07T10:27:08.737Z,100795.22
2022-08-07T10:28:08.727Z,100796.84
2022-08-07T10:29:12.519Z,100789.69
2022-08-07T10:30:16.830Z,100791.39
2022-08-07T10:31:18.680Z,100793.15
2022-08-07T10:32:51.577Z,100793.05
2022-08-07T10:34:06.173Z,100799.25
2022-08-07T10:34:31.774Z,100793.79
2022-08-07T10:35:56.397Z,100786.63
2022-08-07T10:36:36.246Z,100794.56
2022-08-07T10:38:00.281Z,100790.91
2022-08-07T10:38:48.963Z,100796.16
2022-08-07T10:39:57.438Z,100791.68
2022-08-07T10:40:49.663Z,100797.04
2022-08-07T10:42:00.239Z,100792.53
2022-08-07T10:42:55.309Z,100786.33
2022-08-07T10:44:02.434Z,100791.68
2022-08-07T10:45:00.972Z,100781.81
2022-08-07T10:46:03.846Z,100789.95
2022-08-07T10:47:05.860Z,100792.63
2022-08-07T10:48:09.884Z,100784.59
2022-08-07T10:49:11.941Z,100782.66
2022-08-07T10:50:15.099Z,100788.90
2022-08-07T10:51:39.314Z,100792.32
2022-08-07T10:52:21.084Z,100790.39
2022-08-07T10:53:24.872Z,100794.90
2022-08-07T10:54:28.256Z,100792.12
2022-08-07T10:55:37.905Z,100792.96
2022-08-07T10:56:34.011Z,100789.44
2022-08-07T10:57:37.047Z,100787.61
2022-08-07T10:58:40.378Z,100792.02
2022-08-07T10:59:47.520Z,100792.02
2022-08-07T11:00:50.644Z,100797.27
2022-08-07T11:01:51.379Z,100789.23
2022-08-07T11:02:54.152Z,100790.00
2022-08-07T11:04:16.467Z,100784.64
2022-08-07T11:05:08.554Z,100784.64
2022-08-07T11:06:05.600Z,100785.49
2022-08-07T11:07:08.500Z,100787.33
2022-08-07T11:08:12.307Z,100786.45
2022-08-07T11:10:08.832Z,100779.29
2022-08-07T11:10:20.195Z,100782.81
2022-08-07T11:11:22.134Z,100773.83
2022-08-07T11:12:31.680Z,100772.84
2022-08-07T11:14:44.044Z,100779.19
2022-08-07T11:14:44.046Z,100771.25
2022-08-07T11:15:37.852Z,100769.42
2022-08-07T11:16:40.064Z,100769.31
2022-08-07T11:17:43.327Z,100781.75
2022-08-07T11:18:50.941Z,100775.41
2022-08-07T11:19:50.055Z,100769.10
2022-08-07T11:20:52.827Z,100773.41
2022-08-07T11:21:55.601Z,100773.41
2022-08-07T11:22:59.396Z,100776.83
2022-08-07T11:24:03.151Z,100769.63
2022-08-07T11:25:06.852Z,100775.00
2022-08-07T11:26:09.452Z,100780.25
2022-08-07T11:27:14.277Z,100770.41
2022-08-07T11:28:17.514Z,100771.25
2022-08-07T11:29:40.596Z,100778.34
2022-08-07T11:30:41.390Z,100772.87
2022-08-07T11:31:27.205Z,100773.72
2022-08-07T11:32:29.155Z,100768.26
2022-08-07T11:33:59.168Z,100774.36
2022-08-07T11:34:36.541Z,100772.56
2022-08-07T11:35:59.864Z,100772.45
2022-08-07T11:36:44.030Z,100773.30
2022-08-07T11:37:57.961Z,100761.63
2022-08-07T11:38:50.516Z,100761.63
2022-08-07T11:40:00.244Z,100761.52
2022-08-07T11:40:56.650Z,100762.37
2022-08-07T11:42:00.216Z,100762.37
2022-08-07T11:43:03.935Z,100765.92
2022-08-07T11:44:12.658Z,100764.09
2022-08-07T11:45:09.686Z,100761.52
2022-08-07T11:46:13.991Z,100762.47
2022-08-07T11:47:17.684Z,100750.80
2022-08-07T11:48:29.475Z,100757.88
2022-08-07T11:49:51.518Z,100757.78
2022-08-07T11:50:32.959Z,100768.39
2022-08-07T11:51:41.142Z,100755.95
2022-08-07T11:52:37.717Z,100753.27
2022-08-07T11:53:43.285Z,100746.95
2022-08-07T11:54:46.380Z,100746.95
2022-08-07T11:56:08.659Z,100741.70
2022-08-07T11:56:53.257Z,100744.27
2022-08-07T11:58:00.203Z,100744.16
2022-08-07T11:58:58.938Z,100746.73
2022-08-07T12:00:12.128Z,100739.54
2022-08-07T12:01:06.636Z,100745.75
2022-08-07T12:02:17.581Z,100741.27
2022-08-07T12:03:42.179Z,100742.11